sensor_id;sensor_type;location;lat;lon;timestamp;pressure;altitude;pressure_sealevel;temperature;humidity
8717;BME280;4395;48.554;8.820;2023-04-25T00:01:48;95270.09;;;7.33;100.00
8717;BME280;4395;48.554;8.820;2023-04-25T00:03:50;95258.28;;;7.29;100.00
8717;BME280;4395;48.554;8.820;2023-04-25T00:05:54;95027.94;;;5.85;100.00
8717;BME280;4395;48.554;8.820;2023-04-25T00:07:58;95262.34;;;7.15;100.00
8717;BME280;4395;48.554;8.820;2023-04-25T00:10:03;95270.78;;;7.07;100.00
8717;BME280;4395;48.554;8.820;2023-04-25T00:12:06;95164.06;;;6.40;100.00
8717;BME280;4395;48.554;8.820;2023-04-25T00:14:09;95263.16;;;7.16;100.00
8717;BME280;4395;48.554;8.820;2023-04-25T00:16:12;95270.34;;;7.32;100.00
8717;BME280;4395;48.554;8.820;2023-04-25T00:18:17;95274.94;;;7.36;100.00
8717;BME280;4395;48.554;8.820;2023-04-25T00:20:20;95278.53;;;7.25;100.00
8717;BME280;4395;48.554;8.820;2023-04-25T00:22:23;95132.34;;;6.27;100.00
8717;BME280;4395;48.554;8.820;2023-04-25T00:24:26;95280.31;;;7.20;100.00
8717;BME280;4395;48.554;8.820;2023-04-25T00:26:30;94696.69;;;3.56;100.00
8717;BME280;4395;48.554;8.820;2023-04-25T00:28:33;95074.50;;;5.94;100.00
8717;BME280;4395;48.554;8.820;2023-04-25T00:30:36;95217.84;;;7.04;100.00
8717;BME280;4395;48.554;8.820;2023-04-25T00:32:39;95161.03;;;6.70;100.00
8717;BME280;4395;48.554;8.820;2023-04-25T00:34:42;95214.94;;;7.05;100.00
8717;BME280;4395;48.554;8.820;2023-04-25T00:36:46;95279.69;;;7.51;100.00
8717;BME280;4395;48.554;8.820;2023-04-25T00:38:48;95256.03;;;7.21;100.00
8717;BME280;4395;48.554;8.820;2023-04-25T00:40:51;95276.41;;;7.27;100.00
8717;BME280;4395;48.554;8.820;2023-04-25T00:42:58;95273.00;;;7.32;100.00
8717;BME280;4395;48.554;8.820;2023-04-25T00:45:04;95227.44;;;6.83;100.00
8717;BME280;4395;48.554;8.820;2023-04-25T00:47:07;95097.53;;;6.17;100.00
8717;BME280;4395;48.554;8.820;2023-04-25T00:49:10;95215.72;;;6.67;100.00
8717;BME280;4395;48.554;8.820;2023-04-25T00:51:20;95276.13;;;7.07;100.00
8717;BME280;4395;48.554;8.820;2023-04-25T00:53:26;95266.56;;;7.11;100.00
8717;BME280;4395;48.554;8.820;2023-04-25T00:55:29;95266.78;;;7.26;100.00
8717;BME280;4395;48.554;8.820;2023-04-25T00:57:33;95254.41;;;7.20;100.00
8717;BME280;4395;48.554;8.820;2023-04-25T00:59:37;95138.72;;;6.59;100.00
8717;BME280;4395;48.554;8.820;2023-04-25T01:01:41;95249.88;;;7.21;100.00
8717;BME280;4395;48.554;8.820;2023-04-25T01:03:46;95248.88;;;7.27;100.00
8717;BME280;4395;48.554;8.820;2023-04-25T01:05:49;95249.69;;;7.27;100.00
8717;BME280;4395;48.554;8.820;2023-04-25T01:07:53;95246.53;;;7.30;100.00
8717;BME280;4395;48.554;8.820;2023-04-25T01:09:56;95256.03;;;7.21;100.00
8717;BME280;4395;48.554;8.820;2023-04-25T01:11:59;95259.03;;;7.25;100.00
8717;BME280;4395;48.554;8.820;2023-04-25T01:14:02;95248.81;;;7.22;100.00
8717;BME280;4395;48.554;8.820;2023-04-25T01:16:06;95089.94;;;6.08;100.00
8717;BME280;4395;48.554;8.820;2023-04-25T01:18:10;95247.56;;;7.07;100.00
8717;BME280;4395;48.554;8.820;2023-04-25T01:20:14;95167.84;;;6.44;100.00
8717;BME280;4395;48.554;8.820;2023-04-25T01:22:19;95247.81;;;7.06;100.00
8717;BME280;4395;48.554;8.820;2023-04-25T01:24:22;95200.47;;;6.85;100.00
8717;BME280;4395;48.554;8.820;2023-04-25T01:26:26;95255.03;;;7.27;100.00
8717;BME280;4395;48.554;8.820;2023-04-25T01:28:29;95185.22;;;7.02;100.00
8717;BME280;4395;48.554;8.820;2023-04-25T01:30:32;94858.03;;;4.91;100.00
8717;BME280;4395;48.554;8.820;2023-04-25T01:32:35;95154.56;;;6.66;100.00
8717;BME280;4395;48.554;8.820;2023-04-25T01:34:40;95251.38;;;7.33;100.00
8717;BME280;4395;48.554;8.820;2023-04-25T01:36:44;95184.00;;;6.71;100.00
8717;BME280;4395;48.554;8.820;2023-04-25T01:38:48;95180.13;;;7.00;100.00
8717;BME280;4395;48.554;8.820;2023-04-25T01:40:51;95252.63;;;7.26;100.00
8717;BME280;4395;48.554;8.820;2023-04-25T01:42:55;95239.00;;;7.27;100.00
8717;BME280;4395;48.554;8.820;2023-04-25T01:44:58;95232.97;;;7.37;100.00
8717;BME280;4395;48.554;8.820;2023-04-25T01:47:01;95114.34;;;6.00;100.00
8717;BME280;4395;48.554;8.820;2023-04-25T01:49:05;95232.47;;;6.80;100.00
8717;BME280;4395;48.554;8.820;2023-04-25T01:51:08;95238.38;;;7.20;100.00
8717;BME280;4395;48.554;8.820;2023-04-25T01:53:13;95126.91;;;6.55;100.00
8717;BME280;4395;48.554;8.820;2023-04-25T01:55:20;95234.03;;;7.36;100.00
8717;BME280;4395;48.554;8.820;2023-04-25T01:57:31;95219.38;;;7.38;100.00
8717;BME280;4395;48.554;8.820;2023-04-25T01:59:35;95191.88;;;7.21;100.00
8717;BME280;4395;48.554;8.820;2023-04-25T02:01:50;95230.38;;;7.42;100.00
8717;BME280;4395;48.554;8.820;2023-04-25T02:04:02;95199.47;;;7.29;100.00
8717;BME280;4395;48.554;8.820;2023-04-25T02:06:09;95187.84;;;7.19;100.00
8717;BME280;4395;48.554;8.820;2023-04-25T02:08:17;95220.25;;;7.44;100.00
8717;BME280;4395;48.554;8.820;2023-04-25T02:10:21;95091.22;;;6.61;100.00
8717;BME280;4395;48.554;8.820;2023-04-25T02:12:36;95199.72;;;7.28;100.00
8717;BME280;4395;48.554;8.820;2023-04-25T02:14:55;95218.81;;;7.36;100.00
8717;BME280;4395;48.554;8.820;2023-04-25T02:17:12;95215.56;;;7.34;100.00
8717;BME280;4395;48.554;8.820;2023-04-25T02:19:15;95214.63;;;7.24;100.00
8717;BME280;4395;48.554;8.820;2023-04-25T02:21:18;95118.41;;;6.58;100.00
8717;BME280;4395;48.554;8.820;2023-04-25T02:23:21;95165.69;;;6.80;100.00
8717;BME280;4395;48.554;8.820;2023-04-25T02:25:25;95227.66;;;6.98;100.00
8717;BME280;4395;48.554;8.820;2023-04-25T02:27:28;95080.63;;;5.94;100.00
8717;BME280;4395;48.554;8.820;2023-04-25T02:29:31;95220.81;;;6.86;100.00
8717;BME280;4395;48.554;8.820;2023-04-25T02:31:34;95178.75;;;6.59;100.00
8717;BME280;4395;48.554;8.820;2023-04-25T02:33:37;95191.53;;;6.57;100.00
8717;BME280;4395;48.554;8.820;2023-04-25T02:35:40;95229.72;;;6.74;100.00
8717;BME280;4395;48.554;8.820;2023-04-25T02:37:43;95221.47;;;6.76;100.00
8717;BME280;4395;48.554;8.820;2023-04-25T02:39:47;95225.00;;;6.82;100.00
8717;BME280;4395;48.554;8.820;2023-04-25T02:41:52;95165.81;;;6.51;100.00
8717;BME280;4395;48.554;8.820;2023-04-25T02:43:55;95214.41;;;6.87;100.00
8717;BME280;4395;48.554;8.820;2023-04-25T02:45:58;95218.19;;;6.91;100.00
8717;BME280;4395;48.554;8.820;2023-04-25T02:48:02;95014.38;;;5.69;100.00
8717;BME280;4395;48.554;8.820;2023-04-25T02:50:07;95211.88;;;6.97;100.00
8717;BME280;4395;48.554;8.820;2023-04-25T02:52:10;95121.34;;;6.40;100.00
8717;BME280;4395;48.554;8.820;2023-04-25T02:54:15;95103.53;;;6.45;100.00
8717;BME280;4395;48.554;8.820;2023-04-25T02:56:21;95222.63;;;7.02;100.00
8717;BME280;4395;48.554;8.820;2023-04-25T02:58:25;95206.94;;;6.89;100.00
8717;BME280;4395;48.554;8.820;2023-04-25T03:00:28;95100.94;;;5.95;100.00
8717;BME280;4395;48.554;8.820;2023-04-25T03:02:31;95218.81;;;6.26;100.00
8717;BME280;4395;48.554;8.820;2023-04-25T03:04:34;95203.53;;;6.38;100.00
8717;BME280;4395;48.554;8.820;2023-04-25T03:06:37;95212.66;;;6.42;100.00
8717;BME280;4395;48.554;8.820;2023-04-25T03:08:40;95195.25;;;6.56;100.00
8717;BME280;4395;48.554;8.820;2023-04-25T03:10:44;95092.41;;;5.81;100.00
8717;BME280;4395;48.554;8.820;2023-04-25T03:12:49;95181.19;;;6.44;100.00
8717;BME280;4395;48.554;8.820;2023-04-25T03:14:53;94882.50;;;4.43;100.00
8717;BME280;4395;48.554;8.820;2023-04-25T03:16:56;95185.44;;;6.78;100.00
8717;BME280;4395;48.554;8.820;2023-04-25T03:18:59;95190.59;;;6.85;100.00
8717;BME280;4395;48.554;8.820;2023-04-25T03:21:02;95146.72;;;6.59;100.00
8717;BME280;4395;48.554;8.820;2023-04-25T03:23:05;95198.44;;;6.92;100.00
8717;BME280;4395;48.554;8.820;2023-04-25T03:25:08;95174.16;;;6.93;100.00
8717;BME280;4395;48.554;8.820;2023-04-25T03:27:11;95206.38;;;6.87;100.00
8717;BME280;4395;48.554;8.820;2023-04-25T03:29:14;95188.50;;;6.87;100.00
8717;BME280;4395;48.554;8.820;2023-04-25T03:31:20;95027.69;;;5.86;100.00
8717;BME280;4395;48.554;8.820;2023-04-25T03:33:24;95185.50;;;6.84;100.00
8717;BME280;4395;48.554;8.820;2023-04-25T03:35:27;95045.38;;;5.75;100.00
8717;BME280;4395;48.554;8.820;2023-04-25T03:37:30;95192.97;;;6.82;100.00
8717;BME280;4395;48.554;8.820;2023-04-25T03:39:33;95176.94;;;6.82;100.00
8717;BME280;4395;48.554;8.820;2023-04-25T03:41:36;95180.34;;;6.77;100.00
8717;BME280;4395;48.554;8.820;2023-04-25T03:43:45;95183.25;;;6.75;100.00
8717;BME280;4395;48.554;8.820;2023-04-25T03:45:50;95163.72;;;6.53;100.00
8717;BME280;4395;48.554;8.820;2023-04-25T03:47:57;95190.97;;;6.72;100.00
8717;BME280;4395;48.554;8.820;2023-04-25T03:50:03;95181.00;;;6.67;100.00
8717;BME280;4395;48.554;8.820;2023-04-25T03:52:06;95190.56;;;6.63;100.00
8717;BME280;4395;48.554;8.820;2023-04-25T03:54:12;95195.59;;;6.60;100.00
8717;BME280;4395;48.554;8.820;2023-04-25T03:56:40;95182.66;;;6.52;100.00
8717;BME280;4395;48.554;8.820;2023-04-25T03:58:51;95190.41;;;6.53;100.00
8717;BME280;4395;48.554;8.820;2023-04-25T04:00:56;95192.50;;;6.51;100.00
8717;BME280;4395;48.554;8.820;2023-04-25T04:03:00;95164.53;;;6.37;100.00
8717;BME280;4395;48.554;8.820;2023-04-25T04:05:04;95051.19;;;5.56;100.00
8717;BME280;4395;48.554;8.820;2023-04-25T04:07:11;95201.25;;;6.47;100.00
8717;BME280;4395;48.554;8.820;2023-04-25T04:09:16;95129.63;;;6.05;100.00
8717;BME280;4395;48.554;8.820;2023-04-25T04:11:20;95185.16;;;6.41;100.00
8717;BME280;4395;48.554;8.820;2023-04-25T04:13:25;95119.44;;;6.02;100.00
8717;BME280;4395;48.554;8.820;2023-04-25T04:15:29;95104.94;;;5.81;100.00
8717;BME280;4395;48.554;8.820;2023-04-25T04:17:34;95196.00;;;6.35;100.00
8717;BME280;4395;48.554;8.820;2023-04-25T04:19:39;95195.00;;;5.79;100.00
8717;BME280;4395;48.554;8.820;2023-04-25T04:21:52;95139.88;;;5.11;100.00
8717;BME280;4395;48.554;8.820;2023-04-25T04:23:55;95194.94;;;5.45;100.00
8717;BME280;4395;48.554;8.820;2023-04-25T04:25:59;95223.19;;;5.46;100.00
8717;BME280;4395;48.554;8.820;2023-04-25T04:28:26;95193.59;;;5.88;100.00
8717;BME280;4395;48.554;8.820;2023-04-25T04:30:39;95197.69;;;6.07;100.00
8717;BME280;4395;48.554;8.820;2023-04-25T04:32:42;95201.56;;;6.17;100.00
8717;BME280;4395;48.554;8.820;2023-04-25T04:34:47;95209.91;;;6.20;100.00
8717;BME280;4395;48.554;8.820;2023-04-25T04:36:52;95178.19;;;5.90;100.00
8717;BME280;4395;48.554;8.820;2023-04-25T04:38:54;95205.50;;;5.69;100.00
8717;BME280;4395;48.554;8.820;2023-04-25T04:41:09;95204.53;;;5.75;100.00
8717;BME280;4395;48.554;8.820;2023-04-25T04:43:23;95208.34;;;5.51;100.00
8717;BME280;4395;48.554;8.820;2023-04-25T04:45:39;95200.31;;;5.62;100.00
8717;BME280;4395;48.554;8.820;2023-04-25T04:48:01;95212.69;;;5.97;100.00
8717;BME280;4395;48.554;8.820;2023-04-25T04:50:24;95210.63;;;6.16;100.00
8717;BME280;4395;48.554;8.820;2023-04-25T04:52:39;95220.19;;;6.28;100.00
8717;BME280;4395;48.554;8.820;2023-04-25T04:55:07;95217.91;;;6.37;100.00
8717;BME280;4395;48.554;8.820;2023-04-25T04:57:29;95216.13;;;6.42;100.00
8717;BME280;4395;48.554;8.820;2023-04-25T05:00:09;95209.34;;;6.52;100.00
8717;BME280;4395;48.554;8.820;2023-04-25T05:02:38;95210.41;;;6.51;100.00
8717;BME280;4395;48.554;8.820;2023-04-25T05:04:51;95177.31;;;6.35;100.00
8717;BME280;4395;48.554;8.820;2023-04-25T05:07:05;95206.44;;;6.53;100.00
8717;BME280;4395;48.554;8.820;2023-04-25T05:09:31;95203.34;;;6.61;100.00
8717;BME280;4395;48.554;8.820;2023-04-25T05:11:36;95206.41;;;6.70;100.00
8717;BME280;4395;48.554;8.820;2023-04-25T05:14:01;95203.91;;;6.63;100.00
8717;BME280;4395;48.554;8.820;2023-04-25T05:16:20;95152.75;;;5.71;100.00
8717;BME280;4395;48.554;8.820;2023-04-25T05:18:30;95207.00;;;6.22;100.00
8717;BME280;4395;48.554;8.820;2023-04-25T05:20:55;95203.19;;;6.18;100.00
8717;BME280;4395;48.554;8.820;2023-04-25T05:23:23;95133.44;;;5.64;100.00
8717;BME280;4395;48.554;8.820;2023-04-25T05:25:36;95188.59;;;5.92;100.00
8717;BME280;4395;48.554;8.820;2023-04-25T05:27:44;95183.53;;;6.24;100.00
8717;BME280;4395;48.554;8.820;2023-04-25T05:30:05;95181.59;;;6.53;100.00
8717;BME280;4395;48.554;8.820;2023-04-25T05:32:29;95190.09;;;6.16;100.00
8717;BME280;4395;48.554;8.820;2023-04-25T05:34:32;95194.31;;;6.45;100.00
8717;BME280;4395;48.554;8.820;2023-04-25T05:36:39;95212.50;;;6.32;100.00
8717;BME280;4395;48.554;8.820;2023-04-25T05:38:43;95206.75;;;6.57;100.00
8717;BME280;4395;48.554;8.820;2023-04-25T05:41:15;95198.44;;;6.92;100.00
8717;BME280;4395;48.554;8.820;2023-04-25T05:43:46;95201.22;;;7.19;100.00
8717;BME280;4395;48.554;8.820;2023-04-25T05:46:15;95197.97;;;7.38;100.00
8717;BME280;4395;48.554;8.820;2023-04-25T05:48:26;95194.88;;;7.47;100.00
8717;BME280;4395;48.554;8.820;2023-04-25T05:50:37;95193.44;;;7.61;100.00
8717;BME280;4395;48.554;8.820;2023-04-25T05:53:15;95203.75;;;7.30;100.00
8717;BME280;4395;48.554;8.820;2023-04-25T05:55:20;95201.72;;;7.16;100.00
8717;BME280;4395;48.554;8.820;2023-04-25T05:57:23;95204.94;;;7.39;100.00
8717;BME280;4395;48.554;8.820;2023-04-25T05:59:28;95199.03;;;7.37;100.00
8717;BME280;4395;48.554;8.820;2023-04-25T06:01:31;95204.75;;;7.46;100.00
8717;BME280;4395;48.554;8.820;2023-04-25T06:03:35;95072.28;;;6.63;100.00
8717;BME280;4395;48.554;8.820;2023-04-25T06:05:39;95205.13;;;7.55;100.00
8717;BME280;4395;48.554;8.820;2023-04-25T06:07:42;95199.47;;;7.29;100.00
8717;BME280;4395;48.554;8.820;2023-04-25T06:09:46;95202.19;;;7.13;100.00
8717;BME280;4395;48.554;8.820;2023-04-25T06:11:50;95198.00;;;6.78;100.00
8717;BME280;4395;48.554;8.820;2023-04-25T06:13:53;95208.75;;;6.83;100.00
8717;BME280;4395;48.554;8.820;2023-04-25T06:15:56;95044.75;;;5.68;100.00
8717;BME280;4395;48.554;8.820;2023-04-25T06:18:00;95209.63;;;6.89;100.00
8717;BME280;4395;48.554;8.820;2023-04-25T06:20:04;95210.72;;;7.09;100.00
8717;BME280;4395;48.554;8.820;2023-04-25T06:22:07;95226.34;;;7.39;100.00
8717;BME280;4395;48.554;8.820;2023-04-25T06:24:13;95211.84;;;7.57;100.00
8717;BME280;4395;48.554;8.820;2023-04-25T06:26:15;95205.84;;;7.72;100.00
8717;BME280;4395;48.554;8.820;2023-04-25T06:28:21;95212.06;;;7.78;100.00
8717;BME280;4395;48.554;8.820;2023-04-25T06:30:26;95106.38;;;7.21;100.00
8717;BME280;4395;48.554;8.820;2023-04-25T06:32:35;95221.09;;;7.93;100.00
8717;BME280;4395;48.554;8.820;2023-04-25T06:34:38;95219.19;;;7.89;100.00
8717;BME280;4395;48.554;8.820;2023-04-25T06:36:41;95214.38;;;7.91;100.00
8717;BME280;4395;48.554;8.820;2023-04-25T06:38:48;95216.00;;;7.92;100.00
8717;BME280;4395;48.554;8.820;2023-04-25T06:40:51;95218.41;;;7.93;100.00
8717;BME280;4395;48.554;8.820;2023-04-25T06:42:54;95223.22;;;7.91;100.00
8717;BME280;4395;48.554;8.820;2023-04-25T06:45:34;95221.59;;;7.90;100.00
8717;BME280;4395;48.554;8.820;2023-04-25T06:47:38;95195.72;;;7.74;100.00
8717;BME280;4395;48.554;8.820;2023-04-25T06:49:42;95211.50;;;7.97;100.00
8717;BME280;4395;48.554;8.820;2023-04-25T06:51:45;95208.81;;;7.97;100.00
8717;BME280;4395;48.554;8.820;2023-04-25T06:53:48;95156.00;;;7.61;100.00
8717;BME280;4395;48.554;8.820;2023-04-25T06:56:00;95217.97;;;8.01;100.00
8717;BME280;4395;48.554;8.820;2023-04-25T06:58:13;95218.53;;;8.03;100.00
8717;BME280;4395;48.554;8.820;2023-04-25T07:00:44;95223.97;;;7.65;100.00
8717;BME280;4395;48.554;8.820;2023-04-25T07:02:47;95114.03;;;7.13;100.00
8717;BME280;4395;48.554;8.820;2023-04-25T07:04:51;95225.84;;;7.86;100.00
8717;BME280;4395;48.554;8.820;2023-04-25T07:06:54;95220.59;;;7.96;100.00
8717;BME280;4395;48.554;8.820;2023-04-25T07:09:10;95222.16;;;7.92;100.00
8717;BME280;4395;48.554;8.820;2023-04-25T07:11:16;95134.44;;;7.46;100.00
8717;BME280;4395;48.554;8.820;2023-04-25T07:13:19;95225.13;;;7.96;100.00
8717;BME280;4395;48.554;8.820;2023-04-25T07:15:22;95223.56;;;7.78;100.00
8717;BME280;4395;48.554;8.820;2023-04-25T07:17:27;95227.75;;;7.47;100.00
8717;BME280;4395;48.554;8.820;2023-04-25T07:19:31;95225.22;;;7.35;100.00
8717;BME280;4395;48.554;8.820;2023-04-25T07:21:36;95226.56;;;7.60;100.00
8717;BME280;4395;48.554;8.820;2023-04-25T07:23:39;95223.66;;;7.83;100.00
8717;BME280;4395;48.554;8.820;2023-04-25T07:25:47;95220.03;;;7.94;100.00
8717;BME280;4395;48.554;8.820;2023-04-25T07:27:55;95229.19;;;7.55;100.00
8717;BME280;4395;48.554;8.820;2023-04-25T07:29:58;95230.50;;;7.52;100.00
8717;BME280;4395;48.554;8.820;2023-04-25T07:32:00;95232.50;;;7.62;100.00
8717;BME280;4395;48.554;8.820;2023-04-25T07:34:05;95235.16;;;7.62;100.00
8717;BME280;4395;48.554;8.820;2023-04-25T07:36:09;95246.16;;;7.43;100.00
8717;BME280;4395;48.554;8.820;2023-04-25T07:38:12;95242.59;;;7.16;100.00
8717;BME280;4395;48.554;8.820;2023-04-25T07:40:15;95231.53;;;7.29;100.00
8717;BME280;4395;48.554;8.820;2023-04-25T07:42:28;95133.50;;;6.14;100.00
8717;BME280;4395;48.554;8.820;2023-04-25T07:44:31;95251.56;;;6.38;100.00
8717;BME280;4395;48.554;8.820;2023-04-25T07:46:41;95206.41;;;6.20;100.00
8717;BME280;4395;48.554;8.820;2023-04-25T07:48:44;95254.22;;;6.38;100.00
8717;BME280;4395;48.554;8.820;2023-04-25T07:50:48;95259.94;;;6.13;100.00
8717;BME280;4395;48.554;8.820;2023-04-25T07:52:51;95193.03;;;5.58;100.00
8717;BME280;4395;48.554;8.820;2023-04-25T07:55:02;95266.09;;;6.13;100.00
8717;BME280;4395;48.554;8.820;2023-04-25T07:57:15;95274.53;;;6.39;100.00
8717;BME280;4395;48.554;8.820;2023-04-25T07:59:19;95170.56;;;5.54;100.00
8717;BME280;4395;48.554;8.820;2023-04-25T08:01:23;95281.69;;;6.22;100.00
8717;BME280;4395;48.554;8.820;2023-04-25T08:03:30;95279.59;;;6.24;100.00
8717;BME280;4395;48.554;8.820;2023-04-25T08:05:34;95294.63;;;6.13;100.00
8717;BME280;4395;48.554;8.820;2023-04-25T08:07:41;95292.53;;;5.75;100.00
8717;BME280;4395;48.554;8.820;2023-04-25T08:09:45;95180.88;;;5.10;100.00
8717;BME280;4395;48.554;8.820;2023-04-25T08:11:56;95296.59;;;5.66;100.00
8717;BME280;4395;48.554;8.820;2023-04-25T08:14:05;95308.09;;;5.66;100.00
8717;BME280;4395;48.554;8.820;2023-04-25T08:16:08;95310.06;;;5.59;100.00
8717;BME280;4395;48.554;8.820;2023-04-25T08:18:11;95321.53;;;5.60;100.00
8717;BME280;4395;48.554;8.820;2023-04-25T08:20:18;95315.16;;;5.61;100.00
8717;BME280;4395;48.554;8.820;2023-04-25T08:22:21;95324.44;;;5.58;100.00
8717;BME280;4395;48.554;8.820;2023-04-25T08:24:30;95247.47;;;5.22;100.00
8717;BME280;4395;48.554;8.820;2023-04-25T08:26:33;95326.72;;;5.78;100.00
8717;BME280;4395;48.554;8.820;2023-04-25T08:28:36;95330.88;;;5.86;100.00
8717;BME280;4395;48.554;8.820;2023-04-25T08:30:39;95283.53;;;5.53;100.00
8717;BME280;4395;48.554;8.820;2023-04-25T08:32:45;95345.25;;;5.96;100.00
8717;BME280;4395;48.554;8.820;2023-04-25T08:35:14;95337.38;;;5.78;100.00
8717;BME280;4395;48.554;8.820;2023-04-25T08:37:18;95340.78;;;5.62;100.00
8717;BME280;4395;48.554;8.820;2023-04-25T08:39:29;95347.63;;;5.58;100.00
8717;BME280;4395;48.554;8.820;2023-04-25T08:42:02;95350.19;;;5.41;100.00
8717;BME280;4395;48.554;8.820;2023-04-25T08:44:09;95355.75;;;5.28;100.00
8717;BME280;4395;48.554;8.820;2023-04-25T08:46:17;95369.19;;;5.44;100.00
8717;BME280;4395;48.554;8.820;2023-04-25T08:48:32;95373.47;;;5.34;100.00
8717;BME280;4395;48.554;8.820;2023-04-25T08:50:36;95208.13;;;4.30;100.00
8717;BME280;4395;48.554;8.820;2023-04-25T08:52:44;95376.50;;;5.49;100.00
8717;BME280;4395;48.554;8.820;2023-04-25T08:54:51;95384.59;;;5.54;100.00
8717;BME280;4395;48.554;8.820;2023-04-25T08:56:56;95245.50;;;4.70;100.00
8717;BME280;4395;48.554;8.820;2023-04-25T08:59:01;95392.59;;;5.66;100.00
8717;BME280;4395;48.554;8.820;2023-04-25T09:01:04;95393.00;;;5.86;100.00
8717;BME280;4395;48.554;8.820;2023-04-25T09:03:14;95395.84;;;5.21;100.00
8717;BME280;4395;48.554;8.820;2023-04-25T09:05:20;95407.03;;;5.11;100.00
8717;BME280;4395;48.554;8.820;2023-04-25T09:07:26;95410.31;;;5.48;100.00
8717;BME280;4395;48.554;8.820;2023-04-25T09:09:30;95401.88;;;5.28;100.00
8717;BME280;4395;48.554;8.820;2023-04-25T09:11:35;95406.63;;;5.26;100.00
8717;BME280;4395;48.554;8.820;2023-04-25T09:13:43;95405.56;;;5.27;100.00
8717;BME280;4395;48.554;8.820;2023-04-25T09:15:59;95406.03;;;5.24;100.00
8717;BME280;4395;48.554;8.820;2023-04-25T09:18:29;95392.66;;;5.01;100.00
8717;BME280;4395;48.554;8.820;2023-04-25T09:20:41;95420.69;;;5.15;100.00
8717;BME280;4395;48.554;8.820;2023-04-25T09:23:02;95431.63;;;5.25;100.00
8717;BME280;4395;48.554;8.820;2023-04-25T09:25:09;95384.75;;;4.82;100.00
8717;BME280;4395;48.554;8.820;2023-04-25T09:27:21;95430.16;;;4.99;100.00
8717;BME280;4395;48.554;8.820;2023-04-25T09:29:35;95451.38;;;4.64;100.00
8717;BME280;4395;48.554;8.820;2023-04-25T09:31:39;95280.72;;;3.59;100.00
8717;BME280;4395;48.554;8.820;2023-04-25T09:33:44;95448.94;;;4.14;100.00
8717;BME280;4395;48.554;8.820;2023-04-25T09:35:47;95441.41;;;4.60;100.00
8717;BME280;4395;48.554;8.820;2023-04-25T09:38:10;95447.72;;;4.47;100.00
8717;BME280;4395;48.554;8.820;2023-04-25T09:40:44;95447.00;;;4.70;100.00
8717;BME280;4395;48.554;8.820;2023-04-25T09:42:58;95453.94;;;4.41;100.00
8717;BME280;4395;48.554;8.820;2023-04-25T09:45:03;95450.34;;;4.65;100.00
8717;BME280;4395;48.554;8.820;2023-04-25T09:47:12;95452.63;;;4.32;100.00
8717;BME280;4395;48.554;8.820;2023-04-25T09:49:19;95233.44;;;2.76;100.00
8717;BME280;4395;48.554;8.820;2023-04-25T09:51:33;95463.72;;;4.29;100.00
8717;BME280;4395;48.554;8.820;2023-04-25T09:53:37;95462.38;;;4.19;100.00
8717;BME280;4395;48.554;8.820;2023-04-25T09:55:59;95475.53;;;4.33;100.00
8717;BME280;4395;48.554;8.820;2023-04-25T09:58:05;95451.56;;;4.51;100.00
8717;BME280;4395;48.554;8.820;2023-04-25T10:00:10;95468.97;;;4.65;100.00
8717;BME280;4395;48.554;8.820;2023-04-25T10:02:18;95360.41;;;4.26;100.00
8717;BME280;4395;48.554;8.820;2023-04-25T10:04:26;95454.94;;;5.00;100.00
8717;BME280;4395;48.554;8.820;2023-04-25T10:06:40;95387.81;;;4.56;100.00
8717;BME280;4395;48.554;8.820;2023-04-25T10:08:49;95467.75;;;4.79;100.00
8717;BME280;4395;48.554;8.820;2023-04-25T10:10:53;95469.09;;;4.70;100.00
8717;BME280;4395;48.554;8.820;2023-04-25T10:12:56;95250.75;;;3.52;100.00
8717;BME280;4395;48.554;8.820;2023-04-25T10:15:02;95434.03;;;5.15;100.00
8717;BME280;4395;48.554;8.820;2023-04-25T10:17:05;95367.53;;;4.97;100.00
8717;BME280;4395;48.554;8.820;2023-04-25T10:19:10;95127.75;;;2.73;100.00
8717;BME280;4395;48.554;8.820;2023-04-25T10:21:14;95513.25;;;5.20;100.00
8717;BME280;4395;48.554;8.820;2023-04-25T10:23:18;95467.47;;;5.53;100.00
8717;BME280;4395;48.554;8.820;2023-04-25T10:25:23;95475.44;;;5.88;100.00
8717;BME280;4395;48.554;8.820;2023-04-25T10:27:27;95488.44;;;5.84;100.00
8717;BME280;4395;48.554;8.820;2023-04-25T10:29:30;95473.47;;;5.83;100.00
8717;BME280;4395;48.554;8.820;2023-04-25T10:31:45;95476.63;;;5.92;100.00
8717;BME280;4395;48.554;8.820;2023-04-25T10:33:48;95492.75;;;6.08;100.00
8717;BME280;4395;48.554;8.820;2023-04-25T10:35:52;95473.44;;;6.30;100.00
8717;BME280;4395;48.554;8.820;2023-04-25T10:38:04;95481.78;;;6.45;100.00
8717;BME280;4395;48.554;8.820;2023-04-25T10:40:08;95501.44;;;5.80;100.00
8717;BME280;4395;48.554;8.820;2023-04-25T10:42:12;95482.38;;;6.35;100.00
8717;BME280;4395;48.554;8.820;2023-04-25T10:44:14;95444.00;;;6.25;100.00
8717;BME280;4395;48.554;8.820;2023-04-25T10:46:19;95481.41;;;6.53;100.00
8717;BME280;4395;48.554;8.820;2023-04-25T10:48:26;95530.09;;;6.72;100.00
8717;BME280;4395;48.554;8.820;2023-04-25T10:50:37;95487.88;;;7.14;100.00
8717;BME280;4395;48.554;8.820;2023-04-25T10:52:40;95486.06;;;7.48;100.00
8717;BME280;4395;48.554;8.820;2023-04-25T10:54:46;95450.31;;;7.37;100.00
8717;BME280;4395;48.554;8.820;2023-04-25T10:56:50;95471.06;;;7.64;100.00
8717;BME280;4395;48.554;8.820;2023-04-25T10:59:08;95304.75;;;5.47;100.00
8717;BME280;4395;48.554;8.820;2023-04-25T11:01:12;95495.59;;;7.27;100.00
8717;BME280;4395;48.554;8.820;2023-04-25T11:03:16;95496.97;;;7.47;100.00
8717;BME280;4395;48.554;8.820;2023-04-25T11:05:23;95493.56;;;6.61;100.00
8717;BME280;4395;48.554;8.820;2023-04-25T11:07:39;95371.28;;;6.46;100.00
8717;BME280;4395;48.554;8.820;2023-04-25T11:09:51;95312.38;;;6.36;100.00
8717;BME280;4395;48.554;8.820;2023-04-25T11:11:54;95467.34;;;6.86;100.00
8717;BME280;4395;48.554;8.820;2023-04-25T11:13:58;95498.34;;;6.87;100.00
8717;BME280;4395;48.554;8.820;2023-04-25T11:16:00;95490.09;;;6.89;100.00
8717;BME280;4395;48.554;8.820;2023-04-25T11:18:16;95456.56;;;6.53;100.00
8717;BME280;4395;48.554;8.820;2023-04-25T11:20:21;95501.63;;;6.77;100.00
8717;BME280;4395;48.554;8.820;2023-04-25T11:22:26;95499.91;;;7.00;100.00
8717;BME280;4395;48.554;8.820;2023-04-25T11:24:31;95504.78;;;7.03;100.00
8717;BME280;4395;48.554;8.820;2023-04-25T11:26:33;95496.59;;;7.55;100.00
8717;BME280;4395;48.554;8.820;2023-04-25T11:28:38;95460.44;;;7.35;100.00
8717;BME280;4395;48.554;8.820;2023-04-25T11:30:47;95500.25;;;7.99;100.00
8717;BME280;4395;48.554;8.820;2023-04-25T11:32:51;95497.22;;;7.62;100.00
8717;BME280;4395;48.554;8.820;2023-04-25T11:34:54;95496.25;;;7.34;100.00